Atlanta, Georgia
Traffic Map
Current Weather Conditions
Atlanta, Georgia
Scattered Clouds
Scattered Clouds
47°
Feels Like: 43°
Wind Chill: 43° Ceiling: Unl
Heat Index: 47° Visibility: 10mi
Dew Point: 15° Wind: 9mph
Humidity: 28% Direction: 280° (W)
Pressure: 30.17in Gusts: 0mph
Raw Report DataKATL 282352Z 28008KT 10SM FEW120 SCT250 08/M09 A3017 RMK AO2 SLP220 T00831094 10117 20083 53013
Traffic Incident Summary
Active as of:
Severity:
Category:
InformationThere was an issue retrieving the traffic information for this location. Please try a different location or try again shortly.
Advertisements
Track Severe Weather on mobile